sensor_id;sensor_type;location;lat;lon;timestamp;temperature;humidity
12632;DHT22;6381;45.748;12.106;2022-12-18T18:32:10;7.00;99.90
12632;DHT22;6381;45.748;12.106;2022-12-18T18:34:40;6.80;99.90
12632;DHT22;6381;45.748;12.106;2022-12-18T18:37:10;7.10;99.90
12632;DHT22;6381;45.748;12.106;2022-12-18T18:39:39;6.90;99.90
12632;DHT22;6381;45.748;12.106;2022-12-18T18:42:10;6.80;99.90
12632;DHT22;6381;45.748;12.106;2022-12-18T18:44:40;6.90;99.90
12632;DHT22;6381;45.748;12.106;2022-12-18T18:47:15;6.90;99.90
12632;DHT22;6381;45.748;12.106;2022-12-18T18:49:44;6.90;99.90
12632;DHT22;6381;45.748;12.106;2022-12-18T18:52:14;6.90;99.90
12632;DHT22;6381;45.748;12.106;2022-12-18T18:57:35;6.90;99.90
12632;DHT22;6381;45.748;12.106;2022-12-18T19:00:07;6.70;99.90
12632;DHT22;6381;45.748;12.106;2022-12-18T19:02:38;6.70;99.90
12632;DHT22;6381;45.748;12.106;2022-12-18T19:05:08;6.80;99.90
12632;DHT22;6381;45.748;12.106;2022-12-18T19:07:37;6.70;99.90
12632;DHT22;6381;45.748;12.106;2022-12-18T19:10:08;6.60;99.90
12632;DHT22;6381;45.748;12.106;2022-12-18T19:12:38;6.60;99.90
12632;DHT22;6381;45.748;12.106;2022-12-18T19:15:25;6.40;99.90
12632;DHT22;6381;45.748;12.106;2022-12-18T19:17:55;6.20;99.90
12632;DHT22;6381;45.748;12.106;2022-12-18T19:20:24;5.70;99.90
12632;DHT22;6381;45.748;12.106;2022-12-18T19:22:55;5.50;99.90
12632;DHT22;6381;45.748;12.106;2022-12-18T19:25:28;5.60;99.90
12632;DHT22;6381;45.748;12.106;2022-12-18T19:33:27;5.30;99.90
12632;DHT22;6381;45.748;12.106;2022-12-18T19:46:22;5.20;99.90
12632;DHT22;6381;45.748;12.106;2022-12-18T19:48:52;5.20;99.90
12632;DHT22;6381;45.748;12.106;2022-12-18T19:51:23;5.50;99.90
12632;DHT22;6381;45.748;12.106;2022-12-18T19:53:53;5.80;99.90
12632;DHT22;6381;45.748;12.106;2022-12-18T19:56:28;5.30;99.90
12632;DHT22;6381;45.748;12.106;2022-12-18T20:01:29;5.80;99.90
12632;DHT22;6381;45.748;12.106;2022-12-18T20:03:59;6.00;99.90
12632;DHT22;6381;45.748;12.106;2022-12-18T20:06:32;5.90;99.90
12632;DHT22;6381;45.748;12.106;2022-12-18T20:09:03;5.80;99.90
12632;DHT22;6381;45.748;12.106;2022-12-18T20:11:33;5.80;99.90
12632;DHT22;6381;45.748;12.106;2022-12-18T20:14:08;5.60;99.90
12632;DHT22;6381;45.748;12.106;2022-12-18T20:16:40;5.60;99.90
12632;DHT22;6381;45.748;12.106;2022-12-18T20:19:11;5.70;99.90
12632;DHT22;6381;45.748;12.106;2022-12-18T20:21:42;5.50;99.90
12632;DHT22;6381;45.748;12.106;2022-12-18T20:24:11;5.40;99.90
12632;DHT22;6381;45.748;12.106;2022-12-18T20:26:41;5.50;99.90
12632;DHT22;6381;45.748;12.106;2022-12-18T20:29:10;5.40;99.90
12632;DHT22;6381;45.748;12.106;2022-12-18T20:31:41;5.30;99.90
12632;DHT22;6381;45.748;12.106;2022-12-18T20:34:11;5.30;99.90
12632;DHT22;6381;45.748;12.106;2022-12-18T20:36:40;5.30;99.90
12632;DHT22;6381;45.748;12.106;2022-12-18T20:39:10;5.10;99.90
12632;DHT22;6381;45.748;12.106;2022-12-18T20:41:42;5.00;99.90
12632;DHT22;6381;45.748;12.106;2022-12-18T20:44:15;5.00;99.90
12632;DHT22;6381;45.748;12.106;2022-12-18T20:46:52;5.20;99.90
12632;DHT22;6381;45.748;12.106;2022-12-18T20:49:24;5.20;99.90
12632;DHT22;6381;45.748;12.106;2022-12-18T20:51:55;5.10;99.90
12632;DHT22;6381;45.748;12.106;2022-12-18T20:54:26;5.30;99.90
12632;DHT22;6381;45.748;12.106;2022-12-18T20:56:56;5.20;99.90
12632;DHT22;6381;45.748;12.106;2022-12-18T20:59:25;5.20;99.90
12632;DHT22;6381;45.748;12.106;2022-12-18T21:01:56;5.20;99.90
12632;DHT22;6381;45.748;12.106;2022-12-18T21:04:26;5.30;99.90
12632;DHT22;6381;45.748;12.106;2022-12-18T21:06:56;5.30;99.90
12632;DHT22;6381;45.748;12.106;2022-12-18T21:09:29;5.20;99.90
12632;DHT22;6381;45.748;12.106;2022-12-18T21:14:56;5.20;99.90
12632;DHT22;6381;45.748;12.106;2022-12-18T21:17:28;5.30;99.90
12632;DHT22;6381;45.748;12.106;2022-12-18T21:20:01;5.50;99.90
12632;DHT22;6381;45.748;12.106;2022-12-18T21:22:31;5.30;99.90
12632;DHT22;6381;45.748;12.106;2022-12-18T21:25:00;5.40;99.90
12632;DHT22;6381;45.748;12.106;2022-12-18T21:27:30;5.30;99.90
12632;DHT22;6381;45.748;12.106;2022-12-18T21:30:00;5.30;99.90
12632;DHT22;6381;45.748;12.106;2022-12-18T21:32:31;5.20;99.90
12632;DHT22;6381;45.748;12.106;2022-12-18T21:35:00;5.30;99.90
12632;DHT22;6381;45.748;12.106;2022-12-18T21:37:29;5.10;99.90
12632;DHT22;6381;45.748;12.106;2022-12-18T21:39:59;5.20;99.90
12632;DHT22;6381;45.748;12.106;2022-12-18T21:42:28;5.30;99.90
12632;DHT22;6381;45.748;12.106;2022-12-18T21:45:15;5.30;99.90
12632;DHT22;6381;45.748;12.106;2022-12-18T21:47:46;5.00;99.90
12632;DHT22;6381;45.748;12.106;2022-12-18T21:50:15;4.90;99.90
12632;DHT22;6381;45.748;12.106;2022-12-18T21:52:45;4.80;99.90
12632;DHT22;6381;45.748;12.106;2022-12-18T21:55:14;5.10;99.90
12632;DHT22;6381;45.748;12.106;2022-12-18T21:57:45;5.20;99.90
12632;DHT22;6381;45.748;12.106;2022-12-18T22:00:15;5.20;99.90
12632;DHT22;6381;45.748;12.106;2022-12-18T22:02:48;5.10;99.90
12632;DHT22;6381;45.748;12.106;2022-12-18T22:05:37;4.80;99.90
12632;DHT22;6381;45.748;12.106;2022-12-18T22:08:07;5.00;99.90
12632;DHT22;6381;45.748;12.106;2022-12-18T22:10:36;5.20;99.90
12632;DHT22;6381;45.748;12.106;2022-12-18T22:13:06;5.30;99.90
12632;DHT22;6381;45.748;12.106;2022-12-18T22:15:36;4.80;99.90
12632;DHT22;6381;45.748;12.106;2022-12-18T22:18:06;4.60;99.90
12632;DHT22;6381;45.748;12.106;2022-12-18T22:20:36;4.80;99.90
12632;DHT22;6381;45.748;12.106;2022-12-18T22:23:06;5.00;99.90
12632;DHT22;6381;45.748;12.106;2022-12-18T22:25:35;5.10;99.90
12632;DHT22;6381;45.748;12.106;2022-12-18T22:28:06;5.10;99.90
12632;DHT22;6381;45.748;12.106;2022-12-18T22:30:53;5.10;99.70
12632;DHT22;6381;45.748;12.106;2022-12-18T22:33:27;5.00;99.60
12632;DHT22;6381;45.748;12.106;2022-12-18T22:35:57;4.90;99.90
12632;DHT22;6381;45.748;12.106;2022-12-18T22:38:32;4.70;99.80
12632;DHT22;6381;45.748;12.106;2022-12-18T22:43:31;4.50;99.90
12632;DHT22;6381;45.748;12.106;2022-12-18T22:46:01;4.50;99.90
12632;DHT22;6381;45.748;12.106;2022-12-18T22:53:33;4.30;99.90
12632;DHT22;6381;45.748;12.106;2022-12-18T22:56:02;4.70;99.90
12632;DHT22;6381;45.748;12.106;2022-12-18T22:58:32;4.60;99.90
12632;DHT22;6381;45.748;12.106;2022-12-18T23:01:02;4.70;99.90
12632;DHT22;6381;45.748;12.106;2022-12-18T23:03:34;4.70;99.90
12632;DHT22;6381;45.748;12.106;2022-12-18T23:16:06;4.20;99.90
12632;DHT22;6381;45.748;12.106;2022-12-18T23:18:38;4.30;99.90
12632;DHT22;6381;45.748;12.106;2022-12-18T23:23:41;4.60;99.90
12632;DHT22;6381;45.748;12.106;2022-12-18T23:28:42;4.50;99.90
12632;DHT22;6381;45.748;12.106;2022-12-18T23:31:13;4.30;99.90
12632;DHT22;6381;45.748;12.106;2022-12-18T23:33:45;4.60;99.90
12632;DHT22;6381;45.748;12.106;2022-12-18T23:36:17;4.70;99.90
12632;DHT22;6381;45.748;12.106;2022-12-18T23:38:48;4.60;99.90
12632;DHT22;6381;45.748;12.106;2022-12-18T23:43:49;4.40;99.90
12632;DHT22;6381;45.748;12.106;2022-12-18T23:46:20;4.80;99.90
12632;DHT22;6381;45.748;12.106;2022-12-18T23:48:51;4.90;99.90
12632;DHT22;6381;45.748;12.106;2022-12-18T23:51:22;4.90;99.90
12632;DHT22;6381;45.748;12.106;2022-12-18T23:56:23;4.30;99.90
12632;DHT22;6381;45.748;12.106;2022-12-18T23:58:53;4.60;99.90
